Latest Weather Observations for Kingfish B

IDV60801

Issued at 2:02 pm EST Friday 29 May 2015 (issued every 30 minutes, with the page automatically refreshed every 10 minutes)

About weather observations | Map of weather stations | Latest weather observations for VIC | Other Formats
Station Details ID: 400139 Name: KINGFISH B (PLATFORM) Lat: -38.60 Lon: 148.19 Height: 31.4 m
Data from the previous 72 hours. | See also: Recent months for locations in Victoria
Date/Time
EST
Temp
°C
App
Temp
°C
Dew
Point
Rel
Hum
%
Delta-T
°C
Wind Press
QNH
hPa
Press
MSL
hPa
Rain
since 9 am
mm
Dir
 
Spd
km/h
Gust
km/h
Spd
kts
Gust
kts
29/12:50pm 15.1 9.0 6.8 57 4.1 WSW 28 37 15 20 1018.8 - -
29/12:40pm 15.1 8.3 6.9 58 4.0 WSW 32 37 17 20 1018.8 - -
29/12:30pm 15.1 8.7 7.0 58 4.0 WSW 30 35 16 19 1018.8 - -
29/12:20pm 15.0 8.0 6.8 58 4.0 WSW 33 41 18 22 1018.7 - -
29/12:10pm 15.0 7.2 6.8 58 4.0 WSW 37 43 20 23 1018.5 - -
29/11:50am 15.0 8.1 7.1 59 3.9 WSW 33 43 18 23 1018.7 - -
29/11:40am 15.1 8.2 7.1 59 3.9 W 33 43 18 23 1018.7 - -
29/11:30am 15.0 7.7 7.0 59 3.9 W 35 41 19 22 1018.8 - -
29/11:20am 15.0 7.7 7.0 59 3.9 W 35 41 19 22 1018.9 - -
29/11:10am 15.0 8.0 6.8 58 4.0 WSW 33 41 18 22 1018.9 - -
29/11:00am 15.1 7.8 7.0 58 4.0 WSW 35 43 19 23 1019.1 - -
29/10:50am 15.1 7.4 7.0 58 4.0 WSW 37 43 20 23 1019.1 - -
29/10:40am 15.0 7.3 7.1 59 3.9 W 37 44 20 24 1019.1 - -
29/10:30am 15.0 7.7 7.2 59 3.8 W 35 43 19 23 1019.2 - -
29/10:20am 15.0 7.8 7.6 61 3.7 W 35 43 19 23 1019.3 - -
29/10:10am 15.0 7.7 7.4 60 3.8 W 35 43 19 23 1019.3 - -
29/10:00am 15.0 7.3 7.2 59 3.8 W 37 43 20 23 1019.3 - -
29/09:50am 15.1 7.8 7.1 59 3.9 W 35 43 19 23 1019.5 - -
29/09:40am 15.0 7.7 7.0 59 3.9 W 35 43 19 23 1019.4 - -
29/09:30am 14.9 7.9 7.0 59 3.9 WSW 33 41 18 22 1019.3 - -
29/09:20am 14.9 7.9 6.9 58 3.9 W 33 41 18 22 1019.3 - -
29/09:10am 15.0 7.6 6.9 58 4.0 WSW 35 44 19 24 1019.2 - -
29/09:00am 15.0 7.7 7.1 59 3.9 WSW 35 43 19 23 1019.1 - -
29/08:50am 15.0 7.6 6.9 58 4.0 WSW 35 41 19 22 1019.2 - -
29/08:40am 14.9 7.6 7.0 59 3.9 W 35 43 19 23 1019.2 - -
29/08:30am 14.9 7.5 6.9 58 3.9 WSW 35 43 19 23 1019.1 - -
29/08:20am 15.0 7.2 6.8 58 4.0 W 37 44 20 24 1019.0 - -
29/08:10am 15.4 8.1 7.0 57 4.1 WSW 35 43 19 23 1019.0 - -
29/08:00am 15.2 7.8 6.8 57 4.1 WSW 35 43 19 23 1018.9 - -
29/07:50am 15.1 7.7 6.8 57 4.1 WSW 35 43 19 23 1019.1 - -
29/07:40am 15.0 7.6 6.8 58 4.0 W 35 41 19 22 1019.0 - -
29/07:30am 14.9 7.5 6.8 58 4.0 WSW 35 43 19 23 1018.9 - -
29/07:20am 14.6 7.2 6.8 59 3.8 W 35 41 19 22 1018.8 - -
29/07:10am 14.5 7.5 6.7 59 3.8 W 33 41 18 22 1018.7 - -
29/07:00am 14.5 7.7 6.8 60 3.7 WSW 32 41 17 22 1018.5 - -
29/06:50am 14.3 6.9 6.8 60 3.6 WSW 35 43 19 23 1018.4 - -
29/06:40am 14.1 6.8 7.0 62 3.5 WSW 35 46 19 25 1018.2 - -
29/06:30am 14.0 6.3 7.2 63 3.3 WSW 37 44 20 24 1017.9 - -
29/06:20am 13.9 5.0 7.0 63 3.4 WSW 43 50 23 27 1017.6 - -
29/06:10am 13.9 5.1 7.1 63 3.3 WSW 43 50 23 27 1017.4 - -
29/06:00am 13.9 4.5 7.3 64 3.2 WSW 46 54 25 29 1017.2 - -
29/05:50am 13.8 4.5 7.4 65 3.1 WSW 46 56 25 30 1017.0 - -
29/05:40am 13.9 4.9 7.4 65 3.2 WSW 44 52 24 28 1017.0 - -
29/05:30am 13.8 4.4 7.3 65 3.2 WSW 46 52 25 28 1016.8 - -
29/05:20am 14.0 5.1 7.5 65 3.2 WSW 44 52 24 28 1016.6 - -
29/05:10am 14.0 5.3 7.7 66 3.1 WSW 43 52 23 28 1016.4 - -
29/05:00am 14.0 5.1 7.6 65 3.2 WSW 44 52 24 28 1016.1 - -
29/04:50am 14.1 5.2 7.7 65 3.2 WSW 44 54 24 29 1016.0 - -
29/04:40am 14.2 5.5 7.8 65 3.2 WSW 43 52 23 28 1016.1 - -
29/04:30am 14.1 5.4 7.8 66 3.1 WSW 43 50 23 27 1015.9 - -
29/04:20am 14.1 5.5 8.1 67 3.0 WSW 43 48 23 26 1015.8 - -
29/04:10am 14.1 5.5 8.2 67 2.9 WSW 43 54 23 29 1015.7 - -
29/04:00am 14.2 5.6 8.3 67 3.0 WSW 43 50 23 27 1015.6 - -
29/03:50am 14.3 5.8 8.5 68 2.9 WSW 43 50 23 27 1015.4 - -
29/03:40am 14.4 5.3 8.6 68 2.9 WSW 46 54 25 29 1015.3 - -
29/03:30am 14.4 5.8 8.7 68 2.9 WSW 44 52 24 28 1015.3 - -
29/03:20am 14.4 5.9 8.7 68 2.9 WSW 43 52 23 28 1015.3 - -
29/03:10am 14.3 5.6 8.6 68 2.9 WSW 44 59 24 32 1015.0 - -
29/03:00am 14.4 5.8 8.7 68 2.9 WSW 44 54 24 29 1014.9 - -
29/02:50am 14.5 5.9 8.9 69 2.8 WSW 44 54 24 29 1014.9 - -
29/02:40am 14.5 5.9 8.9 69 2.8 WSW 44 52 24 28 1014.8 - -
29/02:30am 14.5 5.9 8.9 69 2.8 WSW 44 54 24 29 1014.5 - -
29/02:20am 14.7 6.3 9.1 69 2.9 WSW 43 52 23 28 1014.5 - -
29/02:10am 14.7 6.2 9.2 69 2.8 WSW 44 52 24 28 1014.5 - -
29/02:00am 14.9 6.1 9.6 70 2.7 WSW 46 52 25 28 1014.5 - -
29/01:50am 14.9 7.2 10.0 72 2.6 WSW 41 54 22 29 1014.5 - -
29/01:40am 14.9 8.5 10.6 75 2.3 WSW 35 43 19 23 1014.6 - -
29/01:30am 15.0 10.8 11.0 77 2.1 WSW 24 28 13 15 1014.8 - -
29/01:20am 14.9 10.2 10.8 76 2.2 WSW 26 35 14 19 1014.5 - -
29/01:10am 15.0 9.2 10.7 75 2.3 SW 32 39 17 21 1014.4 - -
29/01:00am 15.0 8.2 10.6 75 2.3 WSW 37 44 20 24 1014.3 - -
29/12:50am 15.1 8.7 10.6 74 2.4 WSW 35 43 19 23 1014.3 - -
29/12:40am 15.1 9.0 10.6 74 2.4 WSW 33 39 18 21 1014.5 - -
29/12:30am 15.1 9.3 10.7 75 2.3 WSW 32 39 17 21 1014.5 - -
29/12:20am 15.2 9.2 10.8 75 2.3 WSW 33 37 18 20 1014.5 - -
29/12:10am 15.2 9.8 10.9 75 2.3 WSW 30 35 16 19 1014.6 - -
29/12:00am 15.2 9.4 10.9 75 2.3 WSW 32 39 17 21 1014.6 - -
 
Date/Time
EST
Temp
°C
App
Temp
°C
Dew
Point
Rel
Hum
%
Delta-T
°C
Wind Press
QNH
hPa
Press
MSL
hPa
Rain
since 9 am
mm
Dir
 
Spd
km/h
Gust
km/h
Spd
kts
Gust
kts
28/11:50pm 15.2 9.8 10.9 75 2.3 WSW 30 35 16 19 1014.6 - -
28/11:40pm 15.3 8.6 10.9 75 2.3 WSW 37 46 20 25 1014.5 - -
28/11:30pm 15.3 8.2 11.0 75 2.3 WSW 39 46 21 25 1014.5 - -
28/11:20pm 15.2 8.5 10.9 75 2.3 WSW 37 50 20 27 1014.4 - -
28/11:10pm 15.3 8.6 10.9 75 2.3 WSW 37 46 20 25 1014.4 - -
28/11:00pm 15.3 7.8 10.7 74 2.4 WSW 41 50 22 27 1014.3 - -
28/10:50pm 15.2 8.8 10.6 74 2.4 WSW 35 46 19 25 1014.4 - -
28/10:40pm 15.2 8.4 10.6 74 2.4 SW 37 46 20 25 1014.3 - -
28/10:30pm 15.4 9.0 10.6 73 2.5 SW 35 43 19 23 1014.4 - -
28/10:20pm 15.6 8.8 10.6 72 2.6 SW 37 44 20 24 1014.3 - -
28/10:10pm 15.7 8.5 10.6 71 2.7 SW 39 44 21 24 1014.1 - -
28/10:00pm 16.0 9.9 10.6 70 2.9 WSW 33 41 18 22 1014.2 - -
28/09:50pm 16.7 9.9 10.6 67 3.3 WSW 37 44 20 24 1014.0 - -
28/09:40pm 17.7 13.5 11.2 65 3.5 W 24 46 13 25 1013.8 - -
28/09:30pm 17.3 11.6 11.1 67 3.3 NNW 32 43 17 23 1013.3 - -
28/09:20pm 17.2 11.5 11.2 68 3.2 NNW 32 39 17 21 1013.3 - -
28/09:10pm 17.3 11.6 11.3 68 3.3 NNW 32 39 17 21 1013.4 - -
28/09:00pm 17.3 10.7 11.4 68 3.2 NNW 37 41 20 22 1013.4 - -
28/08:50pm 17.3 10.7 11.5 68 3.2 NNW 37 43 20 23 1013.4 - -
28/08:40pm 17.3 10.7 11.5 68 3.2 NNW 37 43 20 23 1013.4 - -
28/08:20pm 17.4 11.2 11.5 68 3.2 NNW 35 39 19 21 1013.4 - -
28/08:10pm 17.3 11.1 11.5 68 3.2 NNW 35 43 19 23 1013.3 - -
28/08:00pm 17.2 11.6 11.5 69 3.1 NNW 32 37 17 20 1013.3 - -
28/07:50pm 17.3 11.5 11.6 69 3.1 NNW 33 39 18 21 1013.4 - -
28/07:40pm 17.3 11.2 11.6 69 3.1 NNW 35 39 19 21 1013.4 - -
28/07:30pm 17.3 11.2 11.7 69 3.1 NNW 35 39 19 21 1013.5 - -
28/07:20pm 17.3 11.8 11.7 69 3.1 NNW 32 39 17 21 1013.5 - -
28/07:10pm 17.2 12.0 11.7 70 3.0 N 30 35 16 19 1013.5 - -
28/07:00pm 17.3 12.1 11.7 69 3.1 N 30 35 16 19 1013.5 - -
28/06:50pm 17.2 12.0 11.7 70 3.0 NNW 30 37 16 20 1013.5 - -
28/06:40pm 17.2 12.0 11.7 70 3.0 N 30 37 16 20 1013.5 - -
28/06:30pm 17.1 11.6 11.7 70 2.9 N 32 37 17 20 1013.5 - -
28/06:20pm 17.1 12.7 11.7 70 2.9 N 26 32 14 17 1013.6 - -
28/06:10pm 17.1 12.3 11.7 70 2.9 N 28 32 15 17 1013.7 - -
28/06:00pm 17.2 12.4 11.5 69 3.1 N 28 32 15 17 1013.7 - -
28/05:50pm 17.2 11.9 11.3 68 3.2 N 30 33 16 18 1013.6 - -
28/05:40pm 17.3 12.7 11.2 67 3.3 N 26 32 14 17 1013.7 - -
28/05:30pm 17.2 12.6 11.1 67 3.3 N 26 30 14 16 1013.7 - -
28/05:20pm 17.4 12.4 11.0 66 3.5 - 28 32 15 17 1013.6 - -
28/05:10pm 17.2 11.9 11.2 68 3.2 - 30 35 16 19 1013.5 - -
28/05:00pm 16.9 13.2 11.4 70 3.0 N 22 32 12 17 1013.6 - -
28/04:50pm 17.0 14.2 11.5 70 3.0 N 17 22 9 12 1013.7 - -
28/04:40pm 17.0 14.6 11.3 69 3.1 N 15 22 8 12 1013.8 - -
28/04:30pm 17.0 15.3 11.1 68 3.2 N 11 15 6 8 1013.8 - -
28/04:20pm 17.1 14.9 10.9 67 3.3 N 13 19 7 10 1013.8 - -
28/04:10pm 17.2 14.7 10.9 66 3.4 N 15 19 8 10 1013.7 - -
28/04:00pm 17.3 14.4 10.9 66 3.4 N 17 22 9 12 1013.6 - -
28/03:50pm 17.3 14.5 11.2 67 3.3 N 17 22 9 12 1013.6 - -
28/03:40pm 17.6 15.4 10.9 65 3.6 N 13 22 7 12 1013.7 - -
28/03:30pm 17.9 14.6 10.8 63 3.8 NNW 19 26 10 14 1013.9 - -
28/03:20pm 18.0 14.1 10.8 63 3.9 NNW 22 28 12 15 1014.0 - -
28/03:10pm 17.9 13.4 11.3 65 3.6 NNW 26 33 14 18 1014.1 - -
28/03:00pm 17.8 13.4 11.8 68 3.3 NNW 26 39 14 21 1014.4 - -
28/02:50pm 18.1 14.1 11.7 66 3.5 NW 24 30 13 16 1014.6 - -
28/02:40pm 18.3 15.0 11.7 65 3.6 NW 20 24 11 13 1014.5 - -
28/02:30pm 18.0 14.4 11.7 66 3.5 NW 22 22 12 12 1014.4 - -
28/02:20pm 18.0 14.7 11.6 66 3.5 NW 20 24 11 13 1014.3 - -
28/02:10pm 18.1 14.1 11.7 66 3.5 NW 24 26 13 14 1014.3 - -
28/02:00pm 18.0 14.0 11.9 67 3.4 NW 24 28 13 15 1014.3 - -
28/01:50pm 18.0 13.7 12.0 68 3.3 NW 26 28 14 15 1014.4 - -
28/01:40pm 18.0 13.7 11.9 67 3.4 NW 26 28 14 15 1014.3 - -
28/01:30pm 17.9 13.5 11.8 67 3.3 NNW 26 32 14 17 1014.3 - -
28/01:20pm 17.8 12.6 11.6 67 3.4 NNW 30 33 16 18 1014.2 - -
28/01:10pm 17.8 13.0 11.7 67 3.3 NNW 28 33 15 18 1014.4 - -
28/01:00pm 17.7 13.3 11.6 67 3.3 NNW 26 32 14 17 1014.4 - -
28/12:50pm 17.6 13.1 11.4 67 3.4 NNW 26 33 14 18 1014.4 - -
28/12:40pm 17.7 13.2 11.4 66 3.4 NNW 26 35 14 19 1014.5 - -
28/12:30pm 17.6 12.7 11.3 66 3.4 NNW 28 35 15 19 1014.6 - -
28/12:20pm 17.6 12.7 11.3 66 3.4 N 28 35 15 19 1014.7 - -
28/12:10pm 17.5 12.2 11.4 67 3.3 NNW 30 37 16 20 1014.9 - -
28/12:00pm 17.4 12.6 11.6 69 3.2 NNW 28 35 15 19 1015.0 - -
28/11:50am 17.1 12.3 11.7 70 2.9 NNW 28 35 15 19 1015.2 - -
28/11:40am 17.0 12.2 11.7 71 2.9 N 28 33 15 18 1015.3 - -
28/11:30am 17.1 12.3 11.7 70 2.9 N 28 32 15 17 1015.5 - -
28/11:20am 17.3 12.5 11.5 68 3.2 N 28 32 15 17 1015.6 - -
28/11:10am 17.5 13.0 11.4 67 3.3 N 26 32 14 17 1015.8 - -
28/11:00am 17.7 12.5 11.6 67 3.3 NNW 30 33 16 18 1016.0 - -
28/10:50am 17.6 13.2 11.6 68 3.3 NNW 26 33 14 18 1016.2 - -
28/10:40am 17.6 13.5 11.5 67 3.3 NNW 24 33 13 18 1016.3 - -
28/10:30am 17.6 13.1 11.3 66 3.4 NNW 26 33 14 18 1016.5 - -
28/10:20am 17.5 12.6 11.2 66 3.4 N 28 37 15 20 1016.6 - -
28/10:10am 17.5 12.6 11.3 67 3.4 NNW 28 37 15 20 1016.8 - -
28/10:00am 17.5 13.4 11.4 67 3.3 NNW 24 33 13 18 1016.9 - -
28/09:50am 17.5 13.4 11.5 68 3.3 NNW 24 30 13 16 1017.1 - -
28/09:40am 17.4 13.3 11.6 69 3.2 NNW 24 33 13 18 1017.3 - -
28/09:30am 17.2 12.7 11.5 69 3.1 N 26 33 14 18 1017.4 - -
28/09:20am 17.4 12.9 11.5 68 3.2 N 26 32 14 17 1017.4 - -
28/09:10am 17.5 13.0 11.4 67 3.3 NNW 26 35 14 19 1017.5 - -
28/09:00am 17.5 12.6 11.3 67 3.4 NNW 28 37 15 20 1017.5 - -
28/08:50am 17.3 12.4 11.4 68 3.2 NNW 28 37 15 20 1017.6 - -
28/08:40am 17.0 12.1 11.3 69 3.1 N 28 33 15 18 1017.6 - -
28/08:30am 17.1 12.6 11.3 68 3.1 N 26 33 14 18 1017.7 - -
28/08:20am 17.2 13.1 11.6 69 3.1 NNW 24 32 13 17 1017.9 - -
28/08:10am 17.1 12.7 11.8 71 2.9 NNW 26 33 14 18 1017.9 - -
28/08:00am 17.0 13.8 11.8 71 2.8 N 20 30 11 16 1017.9 - -
28/07:50am 16.8 13.1 11.6 71 2.8 N 22 28 12 15 1017.8 - -
28/07:40am 16.7 12.2 11.5 71 2.8 NNW 26 30 14 16 1017.8 - -
28/07:30am 16.4 12.2 11.2 71 2.8 N 24 32 13 17 1017.6 - -
28/07:20am 16.5 11.9 11.1 70 2.9 N 26 32 14 17 1017.6 - -
28/07:10am 16.5 10.7 10.9 69 3.0 NNW 32 43 17 23 1017.5 - -
28/07:00am 16.6 9.9 11.0 69 3.0 NNW 37 44 20 24 1017.4 - -
28/06:50am 16.5 10.8 11.0 70 3.0 NNW 32 39 17 21 1017.4 - -
28/06:40am 16.4 11.5 11.2 71 2.8 NNW 28 37 15 20 1017.5 - -
28/06:30am 16.3 12.5 11.3 72 2.7 NNW 22 32 12 17 1017.8 - -
28/06:20am 16.3 13.5 11.2 72 2.7 NNW 17 24 9 13 1017.7 - -
28/06:10am 16.2 12.8 11.2 72 2.7 NNW 20 26 11 14 1017.7 - -
28/06:00am 16.2 12.8 11.3 73 2.6 NNW 20 26 11 14 1017.8 - -
28/05:40am 16.3 12.5 11.2 72 2.7 NNW 22 28 12 15 1017.6 - -
28/05:30am 16.4 12.6 11.3 72 2.8 NNW 22 28 12 15 1017.6 - -
28/05:20am 16.3 12.2 11.3 72 2.7 NNW 24 28 13 15 1017.4 - -
28/05:10am 16.2 12.8 11.2 72 2.7 NNW 20 28 11 15 1017.4 - -
28/05:00am 16.2 12.8 11.3 73 2.6 NNW 20 24 11 13 1017.4 - -
28/04:50am 16.1 12.7 11.2 72 2.6 NNW 20 26 11 14 1017.2 - -
28/04:40am 16.1 13.2 11.1 72 2.7 NNW 17 24 9 13 1017.2 - -
28/04:30am 16.1 12.9 11.1 72 2.7 NNW 19 24 10 13 1017.3 - -
28/04:20am 16.0 12.8 11.2 73 2.6 NNW 19 26 10 14 1017.2 - -
28/04:10am 16.0 13.2 11.2 73 2.6 NNW 17 20 9 11 1017.1 - -
28/04:00am 16.1 13.3 11.2 72 2.6 NNW 17 24 9 13 1017.2 - -
28/03:50am 16.2 12.8 11.3 73 2.6 NNW 20 24 11 13 1017.3 - -
28/03:40am 16.2 12.8 11.3 73 2.6 NNW 20 24 11 13 1017.3 - -
28/03:30am 16.1 12.3 11.2 72 2.6 NNW 22 24 12 13 1017.4 - -
28/03:20am 16.1 12.3 11.2 72 2.6 NNW 22 24 12 13 1017.4 - -
28/03:10am 16.2 12.4 11.2 72 2.7 NNW 22 26 12 14 1017.5 - -
28/03:00am 16.2 12.0 11.2 72 2.7 NNW 24 26 13 14 1017.6 - -
28/02:50am 16.1 11.9 11.2 72 2.6 NNW 24 28 13 15 1017.6 - -
28/02:40am 16.1 11.9 11.2 72 2.6 NNW 24 30 13 16 1017.6 - -
28/02:30am 16.1 12.3 11.3 73 2.6 NNW 22 28 12 15 1017.7 - -
28/02:20am 16.0 12.2 11.3 73 2.5 NNW 22 26 12 14 1017.8 - -
28/02:10am 15.9 12.7 11.2 73 2.5 NNW 19 24 10 13 1017.9 - -
28/02:00am 15.9 13.1 11.2 73 2.5 NNW 17 22 9 12 1018.0 - -
28/01:50am 15.9 13.0 11.0 72 2.6 N 17 22 9 12 1018.0 - -
28/01:40am 15.9 12.6 11.0 72 2.6 N 19 26 10 14 1018.1 - -
28/01:30am 15.9 13.0 10.9 72 2.7 N 17 22 9 12 1018.1 - -
28/01:20am 15.9 12.9 10.8 71 2.7 N 17 22 9 12 1018.2 - -
28/01:10am 15.9 12.6 11.0 72 2.6 NNW 19 24 10 13 1018.3 - -
28/01:00am 16.0 12.7 10.8 71 2.8 N 19 22 10 12 1018.2 - -
28/12:50am 16.1 12.8 10.8 71 2.8 NNW 19 24 10 13 1018.2 - -
28/12:40am 16.1 12.5 10.7 70 2.9 NNW 20 24 11 13 1018.2 - -
28/12:30am 16.0 12.1 10.8 71 2.8 NNW 22 26 12 14 1018.2 - -
28/12:20am 16.0 12.5 11.0 72 2.7 NNW 20 26 11 14 1018.3 - -
28/12:10am 16.1 12.7 11.1 72 2.7 NNW 20 24 11 13 1018.3 - -
28/12:00am 16.1 12.3 11.1 72 2.7 NNW 22 26 12 14 1018.4 - -
 
Date/Time
EST
Temp
°C
App
Temp
°C
Dew
Point
Rel
Hum
%
Delta-T
°C
Wind Press
QNH
hPa
Press
MSL
hPa
Rain
since 9 am
mm
Dir
 
Spd
km/h
Gust
km/h
Spd
kts
Gust
kts
27/11:50pm 16.2 12.8 11.2 72 2.7 NW 20 24 11 13 1018.6 - -
27/11:40pm 16.2 12.5 11.4 73 2.6 NW 22 26 12 14 1018.6 - -
27/11:30pm 16.2 13.0 11.4 73 2.6 NW 19 22 10 12 1018.7 - -
27/11:20pm 16.3 13.2 11.5 73 2.6 NW 19 20 10 11 1018.7 - -
27/11:10pm 16.2 13.0 11.4 73 2.6 NW 19 22 10 12 1018.8 - -
27/11:00pm 16.2 12.8 11.4 73 2.6 NW 20 24 11 13 1018.9 - -
27/10:50pm 16.3 13.1 11.4 73 2.6 NW 19 22 10 12 1019.0 - -
27/10:40pm 16.3 13.1 11.2 72 2.7 NW 19 24 10 13 1019.0 - -
27/10:30pm 16.3 13.1 11.1 71 2.8 NW 19 24 10 13 1019.0 - -
27/10:20pm 16.3 13.1 11.1 71 2.8 NW 19 20 10 11 1019.0 - -
27/10:10pm 16.5 13.2 11.0 70 3.0 NW 19 22 10 12 1019.0 - -
27/10:00pm 16.7 12.9 11.2 70 3.0 NW 22 26 12 14 1019.0 - -
27/09:50pm 16.8 13.0 11.2 69 3.0 NW 22 26 12 14 1019.0 - -
27/09:40pm 16.6 13.1 11.0 69 3.0 NW 20 28 11 15 1019.0 - -
27/09:30pm 16.7 13.2 10.8 68 3.2 NW 20 24 11 13 1019.0 - -
27/09:20pm 17.0 13.2 11.0 68 3.2 NW 22 26 12 14 1019.0 - -
27/09:10pm 16.9 13.4 10.8 67 3.3 NW 20 26 11 14 1019.0 - -
27/09:00pm 17.2 13.7 10.8 66 3.4 NW 20 24 11 13 1019.0 - -
27/08:50pm 17.3 13.4 10.9 66 3.4 NW 22 28 12 15 1019.0 - -
27/08:40pm 17.2 13.5 11.4 68 3.1 NW 22 26 12 14 1019.0 - -
27/08:30pm 16.9 13.7 11.9 72 2.7 NW 20 26 11 14 1018.9 - -
27/08:20pm 16.6 13.5 12.1 75 2.5 NW 20 24 11 13 1018.9 - -
27/08:10pm 16.3 13.2 12.3 77 2.2 NW 20 22 11 12 1019.0 - -
27/08:00pm 16.2 13.3 12.3 78 2.1 NNW 19 22 10 12 1019.0 - -
27/07:50pm 16.2 13.7 12.3 78 2.1 N 17 20 9 11 1019.0 - -
27/07:40pm 16.2 13.7 12.3 78 2.1 N 17 20 9 11 1019.0 - -
27/07:20pm 16.4 14.6 12.2 76 2.3 - 13 20 7 11 1019.0 - -
27/07:10pm 16.4 14.2 12.1 76 2.4 N 15 20 8 11 1019.0 - -
27/07:00pm 16.4 13.8 12.1 76 2.4 N 17 22 9 12 1019.0 - -
27/06:50pm 16.4 13.8 11.9 75 2.5 N 17 20 9 11 1018.9 - -
27/06:40pm 16.3 14.0 11.8 74 2.4 N 15 20 8 11 1018.9 - -
27/06:30pm 16.3 14.0 11.8 74 2.4 N 15 19 8 10 1018.9 - -
27/06:20pm 16.3 14.0 11.8 74 2.4 N 15 17 8 9 1018.9 - -
27/06:10pm 16.3 14.3 11.6 74 2.5 N 13 17 7 9 1018.8 - -
27/06:00pm 16.2 13.8 11.4 73 2.6 N 15 17 8 9 1018.8 - -
27/05:50pm 16.2 13.4 11.3 73 2.6 NNE 17 17 9 9 1018.7 - -
27/05:40pm 16.2 13.0 11.2 72 2.7 NNE 19 20 10 11 1018.6 - -
27/05:30pm 16.2 13.3 11.1 72 2.7 NNE 17 19 9 10 1018.6 - -
27/05:20pm 16.1 12.8 11.0 72 2.7 N 19 20 10 11 1018.6 - -
27/05:10pm 16.1 13.2 11.0 72 2.7 N 17 20 9 11 1018.5 - -
27/05:00pm 16.1 13.6 11.2 72 2.6 N 15 20 8 11 1018.5 - -
27/04:50pm 16.0 13.5 11.1 72 2.6 N 15 17 8 9 1018.5 - -
27/04:40pm 16.0 13.5 11.2 73 2.6 N 15 17 8 9 1018.5 - -
27/04:30pm 16.0 14.3 11.3 73 2.5 N 11 17 6 9 1018.5 - -
27/04:20pm 16.0 14.3 11.3 73 2.5 N 11 13 6 7 1018.5 - -
27/04:10pm 16.0 14.7 11.3 73 2.5 N 9 13 5 7 1018.4 - -
27/04:00pm 16.0 14.7 11.3 73 2.5 N 9 13 5 7 1018.3 - -
27/03:50pm 16.0 14.3 11.3 73 2.5 N 11 15 6 8 1018.3 - -
27/03:40pm 16.0 14.7 11.2 73 2.6 N 9 11 5 6 1018.3 - -
27/03:30pm 15.9 14.6 11.1 73 2.6 N 9 11 5 6 1018.4 - -
27/03:20pm 15.8 14.8 11.0 73 2.6 N 7 13 4 7 1018.4 - -
27/03:10pm 15.9 15.5 11.0 72 2.6 N 4 9 2 5 1018.5 - -
27/03:00pm 15.9 15.5 11.0 72 2.6 N 4 9 2 5 1018.5 - -
27/02:50pm 15.9 15.1 11.0 72 2.6 N 6 11 3 6 1018.4 - -
27/02:40pm 15.9 14.8 10.8 71 2.7 N 7 9 4 5 1018.4 - -
27/02:30pm 15.8 14.7 10.8 72 2.7 N 7 11 4 6 1018.4 - -
27/02:20pm 15.8 14.7 10.7 71 2.7 NNE 7 9 4 5 1018.4 - -
27/02:10pm 15.9 15.0 10.8 71 2.7 NNE 6 9 3 5 1018.3 - -
27/02:00pm 16.0 15.0 10.9 72 2.7 NNE 7 9 4 5 1018.3 - -
27/01:50pm 15.9 14.8 10.8 71 2.7 NNE 7 11 4 6 1018.3 - -
27/01:40pm 15.8 14.3 10.6 71 2.8 N 9 13 5 7 1018.3 - -
27/01:30pm 15.7 14.6 10.5 71 2.8 N 7 11 4 6 1018.4 - -
27/01:20pm 15.7 14.2 10.4 71 2.8 N 9 11 5 6 1018.3 - -
27/01:10pm 15.7 14.5 10.4 71 2.8 N 7 11 4 6 1018.4 - -
27/01:00pm 15.6 14.6 10.3 70 2.8 N 6 11 3 6 1018.5 - -
27/12:50pm 15.6 14.6 10.3 70 2.8 N 6 9 3 5 1018.6 - -
27/12:40pm 15.6 14.5 10.1 70 2.9 N 6 9 3 5 1018.7 - -
27/12:30pm 15.7 14.6 9.9 68 3.0 N 6 9 3 5 1018.9 - -
27/12:20pm 15.7 14.3 9.7 67 3.1 N 7 11 4 6 1019.0 - -
27/12:10pm 15.7 13.9 9.6 67 3.2 N 9 11 5 6 1019.2 - -
27/12:00pm 15.7 14.3 9.7 67 3.1 N 7 11 4 6 1019.3 - -
27/11:50am 16.0 14.9 9.9 67 3.2 N 6 11 3 6 1019.4 - -
27/11:40am 16.3 15.2 10.0 66 3.3 N 6 9 3 5 1019.6 - -
27/11:30am 16.7 15.4 10.1 65 3.5 N 7 9 4 5 1019.7 - -
27/11:20am 16.7 15.6 10.1 65 3.5 NNW 6 9 3 5 1019.9 - -
27/11:10am 16.7 15.5 10.2 65 3.4 NNW 7 9 4 5 1020.0 - -
27/11:00am 16.5 15.3 10.2 66 3.3 NNW 7 9 4 5 1020.1 - -
27/10:50am 16.6 15.4 10.2 66 3.4 N 7 9 4 5 1020.2 - -
27/10:40am 16.6 15.0 10.3 66 3.3 NNW 9 11 5 6 1020.4 - -
27/10:30am 16.6 15.4 10.3 66 3.3 NNW 7 11 4 6 1020.5 - -
27/10:20am 16.5 15.3 10.3 67 3.3 NW 7 9 4 5 1020.7 - -
27/10:10am 16.4 15.1 10.1 66 3.3 NW 7 11 4 6 1020.9 - -
27/10:00am 16.4 15.1 10.0 66 3.4 NW 7 11 4 6 1021.0 - -
27/09:50am 16.3 15.0 9.9 66 3.4 NW 7 9 4 5 1021.0 - -
27/09:40am 16.4 14.7 9.9 65 3.4 NW 9 11 5 6 1021.2 - -
27/09:30am 16.3 14.6 9.9 66 3.4 NNW 9 11 5 6 1021.3 - -
27/09:20am 16.1 14.8 9.9 66 3.2 NW 7 9 4 5 1021.3 - -
27/09:10am 15.8 14.5 10.0 68 3.0 NW 7 9 4 5 1021.4 - -
27/09:00am 15.7 14.5 10.2 70 2.9 NW 7 9 4 5 1021.6 - -
27/08:50am 15.9 14.8 10.6 71 2.8 NW 7 11 4 6 1021.6 - -
27/08:40am 15.9 14.8 10.8 71 2.7 NNW 7 11 4 6 1021.5 - -
27/08:30am 15.9 14.8 10.7 71 2.8 NNW 7 11 4 6 1021.5 - -
27/08:20am 15.8 14.4 10.8 72 2.7 NNW 9 13 5 7 1021.5 - -
27/08:10am 15.3 13.4 10.6 73 2.5 NNW 11 15 6 8 1021.5 - -
27/08:00am 15.0 13.8 10.4 74 2.4 N 7 11 4 6 1021.4 - -
27/07:50am 15.1 14.0 10.6 74 2.4 N 7 13 4 7 1021.4 - -
27/07:40am 15.0 13.5 10.6 75 2.3 N 9 11 5 6 1021.4 - -
27/07:30am 15.0 13.9 10.6 75 2.3 NNE 7 11 4 6 1021.5 - -
27/07:20am 15.1 14.6 10.6 74 2.4 - 4 7 2 4 1021.7 - -
27/07:10am 15.2 14.7 10.9 75 2.3 NNW 4 7 2 4 1021.8 - -
27/07:00am 14.7 14.1 10.5 76 2.2 NNW 4 6 2 3 1021.7 - -
27/06:50am 14.4 14.1 10.1 75 2.2 N 2 7 1 4 1021.7 - -
27/06:30am 14.4 13.7 9.9 74 2.3 N 4 7 2 4 1022.0 - -
27/06:20am 14.4 13.3 9.8 74 2.4 N 6 9 3 5 1021.9 - -
27/06:10am 14.4 13.3 9.8 74 2.4 N 6 9 3 5 1021.8 - -
27/06:00am 14.5 13.4 9.8 73 2.4 - 6 9 3 5 1021.9 - -
27/05:50am 14.6 13.5 9.8 73 2.5 N 6 9 3 5 1021.7 - -
27/05:40am 14.6 13.3 9.8 73 2.5 NNE 7 9 4 5 1021.6 - -
27/05:30am 14.5 13.1 9.6 72 2.5 NNE 7 9 4 5 1021.4 - -
27/05:20am 14.5 12.7 9.6 72 2.5 NE 9 11 5 6 1021.3 - -
27/05:10am 14.5 12.7 9.6 72 2.5 NE 9 11 5 6 1021.4 - -
27/05:00am 14.4 13.0 9.5 72 2.5 NE 7 11 4 6 1021.6 - -
27/04:50am 14.4 13.2 9.5 72 2.5 NNE 6 7 3 4 1021.6 - -
27/04:40am 14.5 13.1 9.6 72 2.5 NNE 7 9 4 5 1021.8 - -
27/04:20am 14.5 13.3 9.7 73 2.5 NNE 6 9 3 5 1021.9 - -
27/04:10am 14.5 13.3 9.7 73 2.5 NNE 6 7 3 4 1021.9 - -
27/04:00am 14.5 13.3 9.6 72 2.5 NNE 6 7 3 4 1021.8 - -
27/03:50am 14.4 13.2 9.5 72 2.5 NNE 6 7 3 4 1021.7 - -
27/03:40am 14.4 13.0 9.6 73 2.5 NE 7 9 4 5 1021.6 - -
27/03:30am 14.3 13.1 9.5 73 2.5 NE 6 7 3 4 1021.6 - -
27/03:20am 14.4 13.6 9.5 72 2.5 NE 4 6 2 3 1021.8 - -
27/03:10am 14.5 13.7 9.5 72 2.6 NE 4 7 2 4 1021.9 - -
27/03:00am 14.5 13.3 9.5 72 2.6 NE 6 9 3 5 1022.0 - -
27/02:50am 14.5 13.1 9.5 72 2.6 NNE 7 11 4 6 1022.1 - -
27/02:40am 14.5 12.7 9.5 72 2.6 NNE 9 11 5 6 1022.1 - -
27/02:30am 14.5 12.7 9.5 72 2.6 NE 9 11 5 6 1022.3 - -
27/02:20am 14.5 12.7 9.6 72 2.5 NE 9 13 5 7 1022.4 - -
27/02:10am 14.4 12.6 9.4 72 2.6 NNE 9 11 5 6 1022.6 - -
27/02:00am 14.3 12.8 9.2 71 2.6 NNE 7 11 4 6 1022.7 - -
27/01:50am 14.4 12.5 9.2 71 2.7 NNE 9 13 5 7 1022.8 - -
27/01:40am 14.4 12.5 9.2 71 2.7 NNE 9 15 5 8 1022.8 - -
27/01:30am 14.5 12.2 9.1 70 2.8 NNE 11 15 6 8 1022.9 - -
27/01:20am 14.4 12.1 8.9 69 2.8 NNE 11 15 6 8 1023.1 - -
27/01:10am 14.4 12.0 8.7 68 2.9 NNE 11 15 6 8 1023.2 - -
27/01:00am 14.4 11.6 8.5 67 3.0 NNE 13 15 7 8 1023.4 - -
27/12:50am 14.4 11.6 8.4 67 3.0 NNE 13 15 7 8 1023.5 - -
27/12:40am 14.4 12.0 8.6 68 2.9 NNE 11 15 6 8 1023.6 - -
27/12:30am 14.4 11.6 8.7 68 2.9 N 13 17 7 9 1023.6 - -
27/12:20am 14.5 11.7 8.7 68 2.9 NNE 13 15 7 8 1023.7 - -
27/12:10am 14.5 12.1 8.6 67 3.0 NNE 11 15 6 8 1023.7 - -
27/12:00am 14.4 12.4 8.5 67 3.0 NE 9 13 5 7 1023.6 - -
 
Date/Time
EST
Temp
°C
App
Temp
°C
Dew
Point
Rel
Hum
%
Delta-T
°C
Wind Press
QNH
hPa
Press
MSL
hPa
Rain
since 9 am
mm
Dir
 
Spd
km/h
Gust
km/h
Spd
kts
Gust
kts
26/11:50pm 14.4 12.0 8.7 68 2.9 NNE 11 13 6 7 1023.7 - -
26/11:40pm 14.4 12.4 8.7 68 2.9 NNE 9 13 5 7 1023.9 - -
26/11:30pm 14.3 12.3 8.8 69 2.8 NNE 9 11 5 6 1024.1 - -
26/11:20pm 14.3 12.7 8.9 70 2.7 NNE 7 11 4 6 1024.1 - -
26/11:10pm 14.2 12.7 9.0 71 2.6 NE 7 9 4 5 1024.2 - -
26/11:00pm 14.3 12.8 9.1 71 2.7 NE 7 9 4 5 1024.2 - -
26/10:50pm 14.3 12.4 8.9 70 2.7 NE 9 13 5 7 1024.2 - -
26/10:40pm 15.1 13.3 9.6 69 2.8 NE 9 13 5 7 1024.3 - -
26/10:30pm 14.9 13.6 10.0 72 2.6 NE 7 11 4 6 1024.3 - -
26/10:20pm 14.0 12.5 9.2 73 2.4 NE 7 11 4 6 1024.4 - -
26/10:10pm 14.0 12.7 9.1 72 2.5 NE 6 9 3 5 1024.4 - -
26/10:00pm 14.1 12.8 9.1 72 2.5 NE 6 9 3 5 1024.5 - -
26/09:50pm 14.1 12.8 9.2 72 2.5 NE 6 9 3 5 1024.7 - -
26/09:40pm 14.2 13.0 9.5 73 2.4 NE 6 7 3 4 1024.7 - -
26/09:30pm 13.9 12.7 9.4 74 2.3 NE 6 9 3 5 1024.7 - -
26/09:20pm 13.8 12.6 9.4 75 2.2 NE 6 9 3 5 1024.7 - -
26/09:10pm 13.7 12.3 9.4 75 2.2 NE 7 9 4 5 1024.8 - -
26/09:00pm 13.6 12.4 9.5 76 2.1 NE 6 7 3 4 1024.9 - -
26/08:50pm 13.6 12.8 9.6 77 2.1 NE 4 7 2 4 1025.0 - -
26/08:40pm 13.6 12.8 9.6 77 2.1 NE 4 6 2 3 1025.2 - -
26/08:30pm 13.5 13.1 9.7 78 2.0 NE 2 6 1 3 1025.3 - -
26/08:20pm 13.5 13.1 9.8 78 1.9 NE 2 4 1 2 1025.3 - -
26/08:10pm 13.5 13.5 9.9 79 1.9 CALM 0 4 0 2 1025.4 - -
26/08:00pm 13.5 13.5 9.8 78 1.9 CALM 0 2 0 1 1025.4 - -
26/07:50pm 13.4 13.4 9.8 79 1.9 CALM 0 0 0 0 1025.4 - -
26/07:40pm 13.4 13.4 9.7 78 1.9 CALM 0 4 0 2 1025.7 - -
26/07:30pm 13.5 13.5 9.7 78 2.0 CALM 0 2 0 1 1025.8 - -
26/07:20pm 13.5 13.4 9.6 77 2.0 CALM 0 2 0 1 1025.8 - -
26/07:10pm 13.6 13.5 9.6 77 2.1 CALM 0 2 0 1 1025.8 - -
26/07:00pm 13.7 13.7 9.8 77 2.0 CALM 0 2 0 1 1025.8 - -
26/06:50pm 13.9 13.9 9.8 76 2.1 CALM 0 0 0 0 1025.9 - -
26/06:40pm 14.2 14.3 10.0 76 2.2 CALM 0 2 0 1 1026.0 - -
26/06:30pm 14.4 14.5 10.1 75 2.2 CALM 0 2 0 1 1026.0 - -
26/06:20pm 15.0 15.2 10.6 75 2.3 CALM 0 2 0 1 1026.1 - -
26/06:10pm 15.1 15.4 10.8 75 2.3 CALM 0 2 0 1 1026.1 - -
26/06:00pm 15.1 15.0 10.8 75 2.3 NNW 2 4 1 2 1026.0 - -
26/05:50pm 15.0 14.9 10.9 76 2.2 NW 2 4 1 2 1026.1 - -
26/05:40pm 14.6 14.8 10.4 76 2.2 CALM 0 4 0 2 1026.0 - -
26/05:30pm 14.7 14.9 10.5 76 2.2 CALM 0 2 0 1 1026.0 - -
26/05:20pm 15.0 15.3 11.0 77 2.1 CALM 0 2 0 1 1026.0 - -
26/05:10pm 15.0 15.4 11.2 78 2.0 CALM 0 2 0 1 1026.0 - -
26/05:00pm 14.3 14.5 10.7 79 1.9 CALM 0 0 0 0 1025.9 - -
26/04:50pm 13.9 14.0 10.3 79 1.9 CALM 0 0 0 0 1025.9 - -
26/04:40pm 14.1 14.2 10.3 78 2.0 CALM 0 0 0 0 1025.9 - -
26/04:30pm 14.3 14.5 10.4 77 2.0 CALM 0 0 0 0 1026.0 - -
26/04:20pm 14.4 14.6 10.6 78 2.0 CALM 0 0 0 0 1025.9 - -
26/04:10pm 14.2 14.4 10.4 78 2.0 CALM 0 0 0 0 1025.9 - -
26/04:00pm 14.1 14.1 9.9 76 2.2 CALM 0 0 0 0 1025.8 - -
26/03:50pm 14.7 14.8 10.3 75 2.3 CALM 0 0 0 0 1025.8 - -
26/03:40pm 15.0 15.2 10.6 75 2.3 CALM 0 0 0 0 1026.0 - -
26/03:30pm 15.3 15.6 11.0 75 2.3 CALM 0 2 0 1 1026.0 - -
26/03:20pm 14.9 15.1 10.7 76 2.2 CALM 0 2 0 1 1026.0 - -
26/03:10pm 14.8 15.0 10.5 75 2.3 CALM 0 2 0 1 1026.1 - -
26/03:00pm 14.7 14.9 10.4 75 2.3 CALM 0 2 0 1 1026.1 - -
26/02:50pm 14.4 14.5 10.3 76 2.1 CALM 0 2 0 1 1026.0 - -
26/02:40pm 14.3 14.4 10.1 76 2.2 CALM 0 2 0 1 1026.0 - -
26/02:30pm 14.3 14.0 10.1 76 2.2 W 2 4 1 2 1026.1 - -
26/02:20pm 14.3 14.0 10.1 76 2.2 WSW 2 4 1 2 1026.0 - -
26/02:10pm 14.3 14.0 10.0 75 2.2 WSW 2 4 1 2 1026.1 - -

Other Formats:

Comma delimited format used in spreadsheet applications
http://www.bom.gov.au/fwo/IDV60801/IDV60801.55039.axf

JavaScript Object Notation format (JSON) in row-major order
http://www.bom.gov.au/fwo/IDV60801/IDV60801.55039.json